sensor_id;sensor_type;location;lat;lon;timestamp;P1;durP1;ratioP1;P2;durP2;ratioP2
3999;SDS011;2014;53.604;10.112;2022-12-18T00:00:20;11.50;;;9.67;;
3999;SDS011;2014;53.604;10.112;2022-12-18T00:02:47;11.77;;;9.30;;
3999;SDS011;2014;53.604;10.112;2022-12-18T00:05:15;9.33;;;8.50;;
3999;SDS011;2014;53.604;10.112;2022-12-18T00:07:44;10.33;;;8.40;;
3999;SDS011;2014;53.604;10.112;2022-12-18T00:10:11;10.17;;;8.47;;
3999;SDS011;2014;53.604;10.112;2022-12-18T00:12:39;12.33;;;8.30;;
3999;SDS011;2014;53.604;10.112;2022-12-18T00:15:06;9.70;;;8.30;;
3999;SDS011;2014;53.604;10.112;2022-12-18T00:17:34;9.90;;;8.10;;
3999;SDS011;2014;53.604;10.112;2022-12-18T00:20:01;9.13;;;7.33;;
3999;SDS011;2014;53.604;10.112;2022-12-18T00:22:28;11.67;;;8.27;;
3999;SDS011;2014;53.604;10.112;2022-12-18T00:24:57;11.20;;;8.37;;
3999;SDS011;2014;53.604;10.112;2022-12-18T00:27:25;9.50;;;8.07;;
3999;SDS011;2014;53.604;10.112;2022-12-18T00:29:52;11.77;;;9.20;;
3999;SDS011;2014;53.604;10.112;2022-12-18T00:32:19;12.00;;;8.80;;
3999;SDS011;2014;53.604;10.112;2022-12-18T00:34:46;10.07;;;8.40;;
3999;SDS011;2014;53.604;10.112;2022-12-18T00:37:14;9.73;;;8.00;;
3999;SDS011;2014;53.604;10.112;2022-12-18T00:39:41;9.70;;;8.70;;
3999;SDS011;2014;53.604;10.112;2022-12-18T00:42:10;14.10;;;8.00;;
3999;SDS011;2014;53.604;10.112;2022-12-18T00:45:04;10.80;;;8.40;;
3999;SDS011;2014;53.604;10.112;2022-12-18T00:47:31;8.70;;;7.30;;
3999;SDS011;2014;53.604;10.112;2022-12-18T00:49:59;8.03;;;7.23;;
3999;SDS011;2014;53.604;10.112;2022-12-18T00:52:26;9.37;;;7.87;;
3999;SDS011;2014;53.604;10.112;2022-12-18T00:54:53;13.30;;;7.07;;
3999;SDS011;2014;53.604;10.112;2022-12-18T00:57:22;8.27;;;7.47;;
3999;SDS011;2014;53.604;10.112;2022-12-18T00:59:49;9.90;;;7.23;;
3999;SDS011;2014;53.604;10.112;2022-12-18T01:02:17;12.47;;;7.70;;
3999;SDS011;2014;53.604;10.112;2022-12-18T01:04:44;8.50;;;7.60;;
3999;SDS011;2014;53.604;10.112;2022-12-18T01:07:11;8.47;;;6.53;;
3999;SDS011;2014;53.604;10.112;2022-12-18T01:09:39;8.33;;;7.30;;
3999;SDS011;2014;53.604;10.112;2022-12-18T01:12:06;9.70;;;7.77;;
3999;SDS011;2014;53.604;10.112;2022-12-18T01:14:35;8.53;;;7.17;;
3999;SDS011;2014;53.604;10.112;2022-12-18T01:17:03;8.77;;;7.90;;
3999;SDS011;2014;53.604;10.112;2022-12-18T01:19:30;8.13;;;7.33;;
3999;SDS011;2014;53.604;10.112;2022-12-18T01:21:58;8.20;;;7.33;;
3999;SDS011;2014;53.604;10.112;2022-12-18T01:24:25;13.40;;;8.53;;
3999;SDS011;2014;53.604;10.112;2022-12-18T01:26:53;9.73;;;7.83;;
3999;SDS011;2014;53.604;10.112;2022-12-18T01:29:22;12.80;;;7.23;;
3999;SDS011;2014;53.604;10.112;2022-12-18T01:31:50;7.57;;;6.77;;
3999;SDS011;2014;53.604;10.112;2022-12-18T01:34:18;7.83;;;5.80;;
3999;SDS011;2014;53.604;10.112;2022-12-18T01:36:45;9.37;;;7.17;;
3999;SDS011;2014;53.604;10.112;2022-12-18T01:39:13;8.67;;;6.87;;
3999;SDS011;2014;53.604;10.112;2022-12-18T01:41:41;7.33;;;6.63;;
3999;SDS011;2014;53.604;10.112;2022-12-18T01:44:51;6.57;;;5.93;;
3999;SDS011;2014;53.604;10.112;2022-12-18T01:47:22;9.37;;;7.50;;
3999;SDS011;2014;53.604;10.112;2022-12-18T01:49:50;8.03;;;7.33;;
3999;SDS011;2014;53.604;10.112;2022-12-18T01:52:18;9.37;;;7.40;;
3999;SDS011;2014;53.604;10.112;2022-12-18T01:54:45;6.60;;;6.13;;
3999;SDS011;2014;53.604;10.112;2022-12-18T01:57:13;7.40;;;6.70;;
3999;SDS011;2014;53.604;10.112;2022-12-18T01:59:41;7.30;;;6.60;;
3999;SDS011;2014;53.604;10.112;2022-12-18T02:02:09;9.23;;;6.33;;
3999;SDS011;2014;53.604;10.112;2022-12-18T02:04:38;6.63;;;6.03;;
3999;SDS011;2014;53.604;10.112;2022-12-18T02:07:10;10.00;;;5.80;;
3999;SDS011;2014;53.604;10.112;2022-12-18T02:09:41;8.73;;;6.90;;
3999;SDS011;2014;53.604;10.112;2022-12-18T02:12:13;7.70;;;5.40;;
3999;SDS011;2014;53.604;10.112;2022-12-18T02:14:44;7.33;;;6.47;;
3999;SDS011;2014;53.604;10.112;2022-12-18T02:17:13;7.03;;;6.43;;
3999;SDS011;2014;53.604;10.112;2022-12-18T02:19:47;5.43;;;5.00;;
3999;SDS011;2014;53.604;10.112;2022-12-18T02:22:26;7.30;;;6.30;;
3999;SDS011;2014;53.604;10.112;2022-12-18T02:24:59;6.37;;;5.80;;
3999;SDS011;2014;53.604;10.112;2022-12-18T02:27:30;6.30;;;5.90;;
3999;SDS011;2014;53.604;10.112;2022-12-18T02:29:59;5.70;;;5.23;;
3999;SDS011;2014;53.604;10.112;2022-12-18T02:32:28;6.60;;;6.10;;
3999;SDS011;2014;53.604;10.112;2022-12-18T02:34:57;7.50;;;6.30;;
3999;SDS011;2014;53.604;10.112;2022-12-18T02:37:25;7.53;;;5.90;;
3999;SDS011;2014;53.604;10.112;2022-12-18T02:39:54;6.20;;;5.70;;
3999;SDS011;2014;53.604;10.112;2022-12-18T02:42:23;6.97;;;6.43;;
3999;SDS011;2014;53.604;10.112;2022-12-18T02:44:52;6.23;;;5.63;;
3999;SDS011;2014;53.604;10.112;2022-12-18T02:47:23;8.77;;;5.63;;
3999;SDS011;2014;53.604;10.112;2022-12-18T02:49:53;7.73;;;6.00;;
3999;SDS011;2014;53.604;10.112;2022-12-18T02:52:26;6.60;;;6.00;;
3999;SDS011;2014;53.604;10.112;2022-12-18T02:54:57;6.00;;;5.60;;
3999;SDS011;2014;53.604;10.112;2022-12-18T02:57:29;6.67;;;6.03;;
3999;SDS011;2014;53.604;10.112;2022-12-18T03:00:01;6.20;;;5.13;;
3999;SDS011;2014;53.604;10.112;2022-12-18T03:02:32;5.80;;;5.30;;
3999;SDS011;2014;53.604;10.112;2022-12-18T03:05:03;5.70;;;5.30;;
3999;SDS011;2014;53.604;10.112;2022-12-18T03:07:34;5.90;;;5.30;;
3999;SDS011;2014;53.604;10.112;2022-12-18T03:10:03;8.90;;;5.93;;
3999;SDS011;2014;53.604;10.112;2022-12-18T03:12:33;7.90;;;5.40;;
3999;SDS011;2014;53.604;10.112;2022-12-18T03:15:04;5.37;;;4.83;;
3999;SDS011;2014;53.604;10.112;2022-12-18T03:17:33;6.80;;;6.20;;
3999;SDS011;2014;53.604;10.112;2022-12-18T03:20:03;5.60;;;5.17;;
3999;SDS011;2014;53.604;10.112;2022-12-18T03:22:30;4.83;;;4.63;;
3999;SDS011;2014;53.604;10.112;2022-12-18T03:24:59;5.23;;;4.93;;
3999;SDS011;2014;53.604;10.112;2022-12-18T03:27:28;5.80;;;5.33;;
3999;SDS011;2014;53.604;10.112;2022-12-18T03:29:58;6.80;;;5.30;;
3999;SDS011;2014;53.604;10.112;2022-12-18T03:32:35;5.93;;;5.43;;
3999;SDS011;2014;53.604;10.112;2022-12-18T03:35:03;6.00;;;5.37;;
3999;SDS011;2014;53.604;10.112;2022-12-18T03:37:31;5.40;;;5.10;;
3999;SDS011;2014;53.604;10.112;2022-12-18T03:39:59;5.77;;;5.13;;
3999;SDS011;2014;53.604;10.112;2022-12-18T03:42:27;5.20;;;4.90;;
3999;SDS011;2014;53.604;10.112;2022-12-18T03:44:57;6.20;;;5.67;;
3999;SDS011;2014;53.604;10.112;2022-12-18T03:47:26;13.80;;;6.43;;
3999;SDS011;2014;53.604;10.112;2022-12-18T03:49:56;7.57;;;5.57;;
3999;SDS011;2014;53.604;10.112;2022-12-18T03:52:26;6.03;;;5.37;;
3999;SDS011;2014;53.604;10.112;2022-12-18T03:54:53;5.10;;;4.60;;
3999;SDS011;2014;53.604;10.112;2022-12-18T03:57:22;5.57;;;5.07;;
3999;SDS011;2014;53.604;10.112;2022-12-18T03:59:51;5.30;;;4.80;;
3999;SDS011;2014;53.604;10.112;2022-12-18T04:02:19;7.83;;;4.93;;
3999;SDS011;2014;53.604;10.112;2022-12-18T04:04:47;5.00;;;4.77;;
3999;SDS011;2014;53.604;10.112;2022-12-18T04:07:16;6.10;;;5.43;;
3999;SDS011;2014;53.604;10.112;2022-12-18T04:09:44;5.40;;;4.20;;
3999;SDS011;2014;53.604;10.112;2022-12-18T04:12:12;5.33;;;4.93;;
3999;SDS011;2014;53.604;10.112;2022-12-18T04:14:40;6.23;;;5.50;;
3999;SDS011;2014;53.604;10.112;2022-12-18T04:17:07;9.70;;;5.10;;
3999;SDS011;2014;53.604;10.112;2022-12-18T04:19:34;5.67;;;5.27;;
3999;SDS011;2014;53.604;10.112;2022-12-18T04:22:02;6.07;;;5.07;;
3999;SDS011;2014;53.604;10.112;2022-12-18T04:24:30;5.90;;;5.30;;
3999;SDS011;2014;53.604;10.112;2022-12-18T04:26:58;4.70;;;4.40;;
3999;SDS011;2014;53.604;10.112;2022-12-18T04:29:25;6.73;;;5.70;;
3999;SDS011;2014;53.604;10.112;2022-12-18T04:31:53;4.57;;;4.27;;
3999;SDS011;2014;53.604;10.112;2022-12-18T04:34:20;6.20;;;5.70;;
3999;SDS011;2014;53.604;10.112;2022-12-18T04:36:48;4.57;;;4.27;;
3999;SDS011;2014;53.604;10.112;2022-12-18T04:39:15;5.90;;;4.80;;
3999;SDS011;2014;53.604;10.112;2022-12-18T04:41:47;5.73;;;5.30;;
3999;SDS011;2014;53.604;10.112;2022-12-18T04:44:14;6.80;;;4.70;;
3999;SDS011;2014;53.604;10.112;2022-12-18T04:46:41;9.53;;;5.20;;
3999;SDS011;2014;53.604;10.112;2022-12-18T04:49:08;5.80;;;5.27;;
3999;SDS011;2014;53.604;10.112;2022-12-18T04:51:36;5.93;;;5.43;;
3999;SDS011;2014;53.604;10.112;2022-12-18T04:54:04;5.67;;;5.27;;
3999;SDS011;2014;53.604;10.112;2022-12-18T04:56:31;5.30;;;4.90;;
3999;SDS011;2014;53.604;10.112;2022-12-18T04:59:00;4.83;;;4.47;;
3999;SDS011;2014;53.604;10.112;2022-12-18T05:01:27;5.90;;;5.40;;
3999;SDS011;2014;53.604;10.112;2022-12-18T05:03:55;6.07;;;5.50;;
3999;SDS011;2014;53.604;10.112;2022-12-18T05:06:22;7.27;;;5.67;;
3999;SDS011;2014;53.604;10.112;2022-12-18T05:08:49;6.33;;;5.83;;
3999;SDS011;2014;53.604;10.112;2022-12-18T05:11:16;5.10;;;4.60;;
3999;SDS011;2014;53.604;10.112;2022-12-18T05:13:44;6.43;;;5.63;;
3999;SDS011;2014;53.604;10.112;2022-12-18T05:16:13;6.80;;;5.00;;
3999;SDS011;2014;53.604;10.112;2022-12-18T05:18:41;10.60;;;5.27;;
3999;SDS011;2014;53.604;10.112;2022-12-18T05:21:08;6.70;;;5.43;;
3999;SDS011;2014;53.604;10.112;2022-12-18T05:23:36;6.87;;;5.80;;
3999;SDS011;2014;53.604;10.112;2022-12-18T05:26:04;7.10;;;5.50;;
3999;SDS011;2014;53.604;10.112;2022-12-18T05:28:33;6.40;;;5.77;;
3999;SDS011;2014;53.604;10.112;2022-12-18T05:31:01;5.63;;;5.10;;
3999;SDS011;2014;53.604;10.112;2022-12-18T05:33:30;6.90;;;5.70;;
3999;SDS011;2014;53.604;10.112;2022-12-18T05:35:59;6.93;;;6.23;;
3999;SDS011;2014;53.604;10.112;2022-12-18T05:38:27;9.53;;;6.00;;
3999;SDS011;2014;53.604;10.112;2022-12-18T05:40:55;5.43;;;5.13;;
3999;SDS011;2014;53.604;10.112;2022-12-18T05:43:22;8.40;;;5.30;;
3999;SDS011;2014;53.604;10.112;2022-12-18T05:45:50;5.00;;;4.63;;
3999;SDS011;2014;53.604;10.112;2022-12-18T05:48:18;5.80;;;5.40;;
3999;SDS011;2014;53.604;10.112;2022-12-18T05:50:47;5.87;;;5.30;;
3999;SDS011;2014;53.604;10.112;2022-12-18T05:53:15;11.90;;;5.97;;
3999;SDS011;2014;53.604;10.112;2022-12-18T05:55:44;6.10;;;5.50;;
3999;SDS011;2014;53.604;10.112;2022-12-18T05:58:11;7.20;;;5.93;;
3999;SDS011;2014;53.604;10.112;2022-12-18T06:00:40;8.07;;;6.00;;
3999;SDS011;2014;53.604;10.112;2022-12-18T06:03:08;6.83;;;6.13;;
3999;SDS011;2014;53.604;10.112;2022-12-18T06:05:36;6.00;;;5.60;;
3999;SDS011;2014;53.604;10.112;2022-12-18T06:08:05;5.80;;;5.30;;
3999;SDS011;2014;53.604;10.112;2022-12-18T06:10:32;6.10;;;5.50;;
3999;SDS011;2014;53.604;10.112;2022-12-18T06:13:00;6.47;;;5.53;;
3999;SDS011;2014;53.604;10.112;2022-12-18T06:15:27;8.90;;;6.63;;
3999;SDS011;2014;53.604;10.112;2022-12-18T06:17:54;7.30;;;5.10;;
3999;SDS011;2014;53.604;10.112;2022-12-18T06:20:22;5.80;;;5.40;;
3999;SDS011;2014;53.604;10.112;2022-12-18T06:22:49;6.10;;;5.63;;
3999;SDS011;2014;53.604;10.112;2022-12-18T06:25:18;6.70;;;5.87;;
3999;SDS011;2014;53.604;10.112;2022-12-18T06:27:46;5.77;;;5.27;;
3999;SDS011;2014;53.604;10.112;2022-12-18T06:30:14;6.87;;;6.23;;
3999;SDS011;2014;53.604;10.112;2022-12-18T06:32:41;6.70;;;6.10;;
3999;SDS011;2014;53.604;10.112;2022-12-18T06:35:08;7.40;;;5.93;;
3999;SDS011;2014;53.604;10.112;2022-12-18T06:37:36;5.90;;;5.40;;
3999;SDS011;2014;53.604;10.112;2022-12-18T06:40:03;6.80;;;6.10;;
3999;SDS011;2014;53.604;10.112;2022-12-18T06:42:32;6.50;;;6.07;;
3999;SDS011;2014;53.604;10.112;2022-12-18T06:45:00;6.77;;;6.27;;
3999;SDS011;2014;53.604;10.112;2022-12-18T06:47:27;6.80;;;6.13;;
3999;SDS011;2014;53.604;10.112;2022-12-18T06:49:55;7.57;;;6.23;;
3999;SDS011;2014;53.604;10.112;2022-12-18T06:52:22;7.03;;;5.67;;
3999;SDS011;2014;53.604;10.112;2022-12-18T06:54:49;8.33;;;5.93;;
3999;SDS011;2014;53.604;10.112;2022-12-18T06:57:16;9.67;;;6.00;;
3999;SDS011;2014;53.604;10.112;2022-12-18T06:59:45;8.20;;;6.67;;
3999;SDS011;2014;53.604;10.112;2022-12-18T07:02:12;7.07;;;6.30;;
3999;SDS011;2014;53.604;10.112;2022-12-18T07:04:40;7.93;;;6.43;;
3999;SDS011;2014;53.604;10.112;2022-12-18T07:07:07;6.80;;;6.30;;
3999;SDS011;2014;53.604;10.112;2022-12-18T07:09:35;7.37;;;6.00;;
3999;SDS011;2014;53.604;10.112;2022-12-18T07:12:02;11.40;;;8.03;;
3999;SDS011;2014;53.604;10.112;2022-12-18T07:14:30;8.13;;;7.37;;
3999;SDS011;2014;53.604;10.112;2022-12-18T07:16:58;5.83;;;5.33;;
3999;SDS011;2014;53.604;10.112;2022-12-18T07:19:26;13.37;;;7.47;;
3999;SDS011;2014;53.604;10.112;2022-12-18T07:21:53;7.10;;;6.20;;
3999;SDS011;2014;53.604;10.112;2022-12-18T07:24:20;5.97;;;5.57;;
3999;SDS011;2014;53.604;10.112;2022-12-18T07:26:48;8.93;;;6.10;;
3999;SDS011;2014;53.604;10.112;2022-12-18T07:29:15;6.63;;;6.00;;
3999;SDS011;2014;53.604;10.112;2022-12-18T07:31:42;6.77;;;6.17;;
3999;SDS011;2014;53.604;10.112;2022-12-18T07:34:11;6.87;;;6.20;;
3999;SDS011;2014;53.604;10.112;2022-12-18T07:36:39;9.00;;;6.03;;
3999;SDS011;2014;53.604;10.112;2022-12-18T07:39:06;8.60;;;6.10;;
3999;SDS011;2014;53.604;10.112;2022-12-18T07:41:34;6.23;;;5.63;;
3999;SDS011;2014;53.604;10.112;2022-12-18T07:44:01;7.47;;;5.40;;
3999;SDS011;2014;53.604;10.112;2022-12-18T07:46:28;8.30;;;6.20;;
3999;SDS011;2014;53.604;10.112;2022-12-18T07:48:56;7.30;;;5.67;;
3999;SDS011;2014;53.604;10.112;2022-12-18T07:51:24;7.07;;;6.40;;
3999;SDS011;2014;53.604;10.112;2022-12-18T07:53:52;9.50;;;7.10;;
3999;SDS011;2014;53.604;10.112;2022-12-18T07:56:19;7.30;;;6.47;;
3999;SDS011;2014;53.604;10.112;2022-12-18T07:58:47;8.57;;;7.07;;
3999;SDS011;2014;53.604;10.112;2022-12-18T08:01:14;8.17;;;6.57;;
3999;SDS011;2014;53.604;10.112;2022-12-18T08:03:42;6.37;;;5.80;;
3999;SDS011;2014;53.604;10.112;2022-12-18T08:06:09;12.10;;;7.00;;
3999;SDS011;2014;53.604;10.112;2022-12-18T08:08:38;11.73;;;6.90;;
3999;SDS011;2014;53.604;10.112;2022-12-18T08:11:07;7.17;;;6.17;;
3999;SDS011;2014;53.604;10.112;2022-12-18T08:13:34;10.70;;;6.60;;
3999;SDS011;2014;53.604;10.112;2022-12-18T08:16:03;6.40;;;6.00;;
3999;SDS011;2014;53.604;10.112;2022-12-18T08:18:31;7.43;;;6.67;;
3999;SDS011;2014;53.604;10.112;2022-12-18T08:21:07;16.43;;;10.87;;
3999;SDS011;2014;53.604;10.112;2022-12-18T08:23:34;9.80;;;6.83;;
3999;SDS011;2014;53.604;10.112;2022-12-18T08:26:03;8.27;;;6.77;;
3999;SDS011;2014;53.604;10.112;2022-12-18T08:28:30;7.57;;;6.97;;
3999;SDS011;2014;53.604;10.112;2022-12-18T08:30:58;7.03;;;6.40;;
3999;SDS011;2014;53.604;10.112;2022-12-18T08:33:25;7.73;;;7.07;;
3999;SDS011;2014;53.604;10.112;2022-12-18T08:35:52;6.90;;;6.20;;
3999;SDS011;2014;53.604;10.112;2022-12-18T08:38:20;7.10;;;6.40;;
3999;SDS011;2014;53.604;10.112;2022-12-18T08:40:48;6.80;;;6.10;;
3999;SDS011;2014;53.604;10.112;2022-12-18T08:43:17;6.97;;;6.37;;
3999;SDS011;2014;53.604;10.112;2022-12-18T08:46:02;7.83;;;7.03;;
3999;SDS011;2014;53.604;10.112;2022-12-18T08:48:29;8.57;;;7.70;;
3999;SDS011;2014;53.604;10.112;2022-12-18T08:50:57;6.63;;;6.03;;
3999;SDS011;2014;53.604;10.112;2022-12-18T08:53:26;7.80;;;7.10;;
3999;SDS011;2014;53.604;10.112;2022-12-18T08:55:53;11.10;;;7.03;;
3999;SDS011;2014;53.604;10.112;2022-12-18T08:58:22;7.57;;;6.90;;
3999;SDS011;2014;53.604;10.112;2022-12-18T09:00:49;6.70;;;6.33;;
3999;SDS011;2014;53.604;10.112;2022-12-18T09:03:17;7.43;;;6.73;;
3999;SDS011;2014;53.604;10.112;2022-12-18T09:05:47;9.27;;;6.80;;
3999;SDS011;2014;53.604;10.112;2022-12-18T09:08:15;7.23;;;6.47;;
3999;SDS011;2014;53.604;10.112;2022-12-18T09:10:42;8.03;;;7.00;;
3999;SDS011;2014;53.604;10.112;2022-12-18T09:13:10;11.80;;;6.80;;
3999;SDS011;2014;53.604;10.112;2022-12-18T09:15:41;6.90;;;6.10;;
3999;SDS011;2014;53.604;10.112;2022-12-18T09:18:10;7.60;;;5.60;;
3999;SDS011;2014;53.604;10.112;2022-12-18T09:20:38;7.97;;;6.60;;
3999;SDS011;2014;53.604;10.112;2022-12-18T09:23:05;7.40;;;6.77;;
3999;SDS011;2014;53.604;10.112;2022-12-18T09:25:33;7.30;;;5.53;;
3999;SDS011;2014;53.604;10.112;2022-12-18T09:28:01;9.17;;;6.10;;
3999;SDS011;2014;53.604;10.112;2022-12-18T09:30:28;6.57;;;6.13;;
3999;SDS011;2014;53.604;10.112;2022-12-18T09:32:59;8.73;;;6.63;;
3999;SDS011;2014;53.604;10.112;2022-12-18T09:35:27;7.17;;;6.43;;
3999;SDS011;2014;53.604;10.112;2022-12-18T09:37:54;8.27;;;7.47;;
3999;SDS011;2014;53.604;10.112;2022-12-18T09:40:22;9.20;;;7.10;;
3999;SDS011;2014;53.604;10.112;2022-12-18T09:42:51;7.60;;;6.90;;
3999;SDS011;2014;53.604;10.112;2022-12-18T09:45:20;6.53;;;6.00;;
3999;SDS011;2014;53.604;10.112;2022-12-18T09:47:47;10.00;;;6.57;;
3999;SDS011;2014;53.604;10.112;2022-12-18T09:50:19;7.83;;;6.40;;
3999;SDS011;2014;53.604;10.112;2022-12-18T09:52:49;7.27;;;6.47;;
3999;SDS011;2014;53.604;10.112;2022-12-18T09:55:20;10.03;;;8.60;;
3999;SDS011;2014;53.604;10.112;2022-12-18T09:57:51;10.53;;;6.07;;
3999;SDS011;2014;53.604;10.112;2022-12-18T10:00:20;11.10;;;6.83;;
3999;SDS011;2014;53.604;10.112;2022-12-18T10:02:48;9.10;;;8.20;;
3999;SDS011;2014;53.604;10.112;2022-12-18T10:05:17;15.10;;;6.00;;
3999;SDS011;2014;53.604;10.112;2022-12-18T10:07:49;7.37;;;6.67;;
3999;SDS011;2014;53.604;10.112;2022-12-18T10:10:22;7.57;;;6.80;;
3999;SDS011;2014;53.604;10.112;2022-12-18T10:12:52;8.63;;;6.60;;
3999;SDS011;2014;53.604;10.112;2022-12-18T10:15:23;6.63;;;6.03;;
3999;SDS011;2014;53.604;10.112;2022-12-18T10:17:51;5.70;;;5.30;;
3999;SDS011;2014;53.604;10.112;2022-12-18T10:20:22;7.83;;;5.97;;
3999;SDS011;2014;53.604;10.112;2022-12-18T10:22:55;9.93;;;5.93;;
3999;SDS011;2014;53.604;10.112;2022-12-18T10:25:24;8.63;;;7.80;;
3999;SDS011;2014;53.604;10.112;2022-12-18T10:27:53;6.83;;;6.10;;
3999;SDS011;2014;53.604;10.112;2022-12-18T10:30:22;7.30;;;6.60;;
3999;SDS011;2014;53.604;10.112;2022-12-18T10:32:50;7.20;;;6.40;;
3999;SDS011;2014;53.604;10.112;2022-12-18T10:35:18;9.67;;;6.17;;
3999;SDS011;2014;53.604;10.112;2022-12-18T10:38:04;6.77;;;6.10;;
3999;SDS011;2014;53.604;10.112;2022-12-18T10:40:32;6.80;;;6.30;;
3999;SDS011;2014;53.604;10.112;2022-12-18T10:43:10;8.23;;;6.87;;
3999;SDS011;2014;53.604;10.112;2022-12-18T10:45:38;6.87;;;6.27;;
3999;SDS011;2014;53.604;10.112;2022-12-18T10:48:16;6.03;;;5.50;;
3999;SDS011;2014;53.604;10.112;2022-12-18T10:50:45;5.63;;;5.20;;
3999;SDS011;2014;53.604;10.112;2022-12-18T10:53:17;7.30;;;6.70;;
3999;SDS011;2014;53.604;10.112;2022-12-18T10:55:46;6.87;;;6.37;;
3999;SDS011;2014;53.604;10.112;2022-12-18T10:58:16;7.60;;;6.63;;
3999;SDS011;2014;53.604;10.112;2022-12-18T11:00:44;7.43;;;6.57;;
3999;SDS011;2014;53.604;10.112;2022-12-18T11:06:01;6.67;;;6.07;;
3999;SDS011;2014;53.604;10.112;2022-12-18T11:08:29;8.90;;;7.53;;
3999;SDS011;2014;53.604;10.112;2022-12-18T11:10:57;7.33;;;6.57;;
3999;SDS011;2014;53.604;10.112;2022-12-18T11:13:24;11.23;;;7.53;;
3999;SDS011;2014;53.604;10.112;2022-12-18T11:15:53;8.00;;;7.10;;
3999;SDS011;2014;53.604;10.112;2022-12-18T11:18:22;7.50;;;6.80;;
3999;SDS011;2014;53.604;10.112;2022-12-18T11:20:52;7.93;;;6.57;;
3999;SDS011;2014;53.604;10.112;2022-12-18T11:23:21;9.53;;;5.90;;
3999;SDS011;2014;53.604;10.112;2022-12-18T11:25:52;8.13;;;6.73;;
3999;SDS011;2014;53.604;10.112;2022-12-18T11:28:27;7.63;;;6.57;;
3999;SDS011;2014;53.604;10.112;2022-12-18T11:31:08;7.83;;;6.57;;
3999;SDS011;2014;53.604;10.112;2022-12-18T11:33:37;9.10;;;7.27;;
3999;SDS011;2014;53.604;10.112;2022-12-18T11:36:05;6.77;;;6.17;;
3999;SDS011;2014;53.604;10.112;2022-12-18T11:38:38;8.50;;;6.40;;
3999;SDS011;2014;53.604;10.112;2022-12-18T11:41:15;7.87;;;7.07;;
3999;SDS011;2014;53.604;10.112;2022-12-18T11:43:48;7.13;;;6.43;;
3999;SDS011;2014;53.604;10.112;2022-12-18T11:46:17;12.10;;;8.37;;
3999;SDS011;2014;53.604;10.112;2022-12-18T11:48:48;8.80;;;7.20;;
3999;SDS011;2014;53.604;10.112;2022-12-18T11:51:18;9.60;;;7.40;;
3999;SDS011;2014;53.604;10.112;2022-12-18T11:53:48;11.83;;;8.40;;
3999;SDS011;2014;53.604;10.112;2022-12-18T11:56:26;7.80;;;7.00;;
3999;SDS011;2014;53.604;10.112;2022-12-18T11:59:05;10.03;;;7.60;;
3999;SDS011;2014;53.604;10.112;2022-12-18T12:01:36;8.57;;;7.73;;
3999;SDS011;2014;53.604;10.112;2022-12-18T12:04:15;9.10;;;8.20;;
3999;SDS011;2014;53.604;10.112;2022-12-18T12:06:49;9.83;;;7.17;;
3999;SDS011;2014;53.604;10.112;2022-12-18T12:09:20;9.80;;;8.03;;
3999;SDS011;2014;53.604;10.112;2022-12-18T12:11:56;29.93;;;6.87;;
3999;SDS011;2014;53.604;10.112;2022-12-18T12:14:31;7.20;;;6.50;;
3999;SDS011;2014;53.604;10.112;2022-12-18T12:17:03;9.87;;;7.13;;
3999;SDS011;2014;53.604;10.112;2022-12-18T12:19:37;12.13;;;7.97;;
3999;SDS011;2014;53.604;10.112;2022-12-18T12:22:07;12.40;;;7.60;;
3999;SDS011;2014;53.604;10.112;2022-12-18T12:24:40;10.03;;;7.23;;
3999;SDS011;2014;53.604;10.112;2022-12-18T12:27:16;10.53;;;8.23;;
3999;SDS011;2014;53.604;10.112;2022-12-18T12:29:50;11.63;;;8.00;;
3999;SDS011;2014;53.604;10.112;2022-12-18T12:32:25;10.43;;;7.30;;
3999;SDS011;2014;53.604;10.112;2022-12-18T12:34:57;11.47;;;8.13;;
3999;SDS011;2014;53.604;10.112;2022-12-18T12:37:30;12.20;;;7.97;;
3999;SDS011;2014;53.604;10.112;2022-12-18T12:40:02;9.40;;;7.90;;
3999;SDS011;2014;53.604;10.112;2022-12-18T12:42:32;11.77;;;8.60;;
3999;SDS011;2014;53.604;10.112;2022-12-18T12:45:20;9.50;;;7.47;;
3999;SDS011;2014;53.604;10.112;2022-12-18T12:47:49;12.80;;;7.43;;
3999;SDS011;2014;53.604;10.112;2022-12-18T12:50:18;9.07;;;7.97;;
3999;SDS011;2014;53.604;10.112;2022-12-18T12:52:48;12.40;;;8.17;;
3999;SDS011;2014;53.604;10.112;2022-12-18T12:55:17;11.53;;;7.77;;
3999;SDS011;2014;53.604;10.112;2022-12-18T12:57:48;12.90;;;6.90;;
3999;SDS011;2014;53.604;10.112;2022-12-18T13:00:18;8.20;;;7.33;;
3999;SDS011;2014;53.604;10.112;2022-12-18T13:02:47;9.77;;;8.10;;
3999;SDS011;2014;53.604;10.112;2022-12-18T13:05:18;13.37;;;8.57;;
3999;SDS011;2014;53.604;10.112;2022-12-18T13:07:47;9.40;;;8.50;;
3999;SDS011;2014;53.604;10.112;2022-12-18T13:10:24;14.03;;;8.00;;
3999;SDS011;2014;53.604;10.112;2022-12-18T13:12:54;11.10;;;7.37;;
3999;SDS011;2014;53.604;10.112;2022-12-18T13:15:22;7.97;;;7.13;;
3999;SDS011;2014;53.604;10.112;2022-12-18T13:18:01;9.63;;;7.40;;
3999;SDS011;2014;53.604;10.112;2022-12-18T13:20:32;8.27;;;6.47;;
3999;SDS011;2014;53.604;10.112;2022-12-18T13:23:01;11.03;;;8.53;;
3999;SDS011;2014;53.604;10.112;2022-12-18T13:25:45;13.33;;;8.10;;
3999;SDS011;2014;53.604;10.112;2022-12-18T13:28:14;10.70;;;8.23;;
3999;SDS011;2014;53.604;10.112;2022-12-18T13:30:43;13.63;;;8.23;;
3999;SDS011;2014;53.604;10.112;2022-12-18T13:36:00;13.93;;;8.90;;
3999;SDS011;2014;53.604;10.112;2022-12-18T13:38:32;11.73;;;7.70;;
3999;SDS011;2014;53.604;10.112;2022-12-18T13:41:00;10.00;;;7.30;;
3999;SDS011;2014;53.604;10.112;2022-12-18T13:43:33;15.00;;;8.20;;
3999;SDS011;2014;53.604;10.112;2022-12-18T13:46:06;11.00;;;8.30;;
3999;SDS011;2014;53.604;10.112;2022-12-18T13:48:49;14.53;;;8.60;;
3999;SDS011;2014;53.604;10.112;2022-12-18T13:51:17;11.73;;;8.37;;
3999;SDS011;2014;53.604;10.112;2022-12-18T13:53:48;12.00;;;8.33;;
3999;SDS011;2014;53.604;10.112;2022-12-18T13:56:22;12.93;;;7.97;;
3999;SDS011;2014;53.604;10.112;2022-12-18T14:01:40;14.77;;;8.63;;
3999;SDS011;2014;53.604;10.112;2022-12-18T14:04:08;14.43;;;8.60;;
3999;SDS011;2014;53.604;10.112;2022-12-18T14:06:36;10.73;;;8.30;;
3999;SDS011;2014;53.604;10.112;2022-12-18T14:09:04;11.63;;;7.63;;
3999;SDS011;2014;53.604;10.112;2022-12-18T14:11:31;13.13;;;9.00;;
3999;SDS011;2014;53.604;10.112;2022-12-18T14:13:59;18.67;;;9.10;;
3999;SDS011;2014;53.604;10.112;2022-12-18T14:16:28;13.23;;;9.50;;
3999;SDS011;2014;53.604;10.112;2022-12-18T14:18:57;15.50;;;8.83;;
3999;SDS011;2014;53.604;10.112;2022-12-18T14:21:25;15.17;;;8.30;;
3999;SDS011;2014;53.604;10.112;2022-12-18T14:24:02;15.27;;;8.87;;
3999;SDS011;2014;53.604;10.112;2022-12-18T14:26:30;15.47;;;9.23;;
3999;SDS011;2014;53.604;10.112;2022-12-18T14:28:59;15.60;;;10.27;;
3999;SDS011;2014;53.604;10.112;2022-12-18T14:31:27;13.63;;;9.17;;
3999;SDS011;2014;53.604;10.112;2022-12-18T14:33:56;16.73;;;10.17;;
3999;SDS011;2014;53.604;10.112;2022-12-18T14:36:24;14.83;;;9.10;;
3999;SDS011;2014;53.604;10.112;2022-12-18T14:38:52;19.53;;;11.53;;
3999;SDS011;2014;53.604;10.112;2022-12-18T14:41:20;17.23;;;10.10;;
3999;SDS011;2014;53.604;10.112;2022-12-18T14:43:49;14.53;;;9.10;;
3999;SDS011;2014;53.604;10.112;2022-12-18T14:46:27;13.63;;;9.70;;
3999;SDS011;2014;53.604;10.112;2022-12-18T14:48:54;18.47;;;10.00;;
3999;SDS011;2014;53.604;10.112;2022-12-18T14:51:24;20.90;;;11.63;;
3999;SDS011;2014;53.604;10.112;2022-12-18T14:53:55;18.60;;;11.10;;
3999;SDS011;2014;53.604;10.112;2022-12-18T14:56:23;12.07;;;8.00;;
3999;SDS011;2014;53.604;10.112;2022-12-18T14:58:52;16.87;;;9.80;;
3999;SDS011;2014;53.604;10.112;2022-12-18T15:01:21;15.60;;;10.60;;
3999;SDS011;2014;53.604;10.112;2022-12-18T15:03:49;19.60;;;11.10;;
3999;SDS011;2014;53.604;10.112;2022-12-18T15:06:21;21.10;;;11.20;;
3999;SDS011;2014;53.604;10.112;2022-12-18T15:08:53;20.67;;;9.90;;
3999;SDS011;2014;53.604;10.112;2022-12-18T15:11:34;18.43;;;9.97;;
3999;SDS011;2014;53.604;10.112;2022-12-18T15:16:43;19.10;;;10.37;;
3999;SDS011;2014;53.604;10.112;2022-12-18T15:19:11;25.83;;;10.40;;
3999;SDS011;2014;53.604;10.112;2022-12-18T15:21:38;17.40;;;10.37;;